Terminal Aerodrome Forecast
Issued by NWS

Current Version | Previous Version | Graphics & Text | Print | Product List | Glossary On
Versions: 1 2 3 4 5 6 7 8 9 10 11 12 13 14 15 16 17 18
000
FTUS41 KPBZ 241139
TAFHLG
TAF
KHLG 241139Z 2412/2512 26006KT P6SM BKN006 BKN025
     FM241400 26006KT P6SM BKN025
     FM241600 27007KT P6SM BKN050
     FM250200 32005KT P6SM SCT090=

USA.gov is the U.S. government's official web portal to all federal, state and local government web resources and services.